Time,TemperatureF,DewpointF,PressureIn,WindDirection,WindDirectionDegrees,WindSpeedMPH,WindSpeedGustMPH,Humidity,HourlyPrecipIn,Conditions,Clouds,dailyrainin,SoftwareType,DateUTC
2014-08-22 00:01:00,70.7,39.4,28.88,SSW,213,0.0,3.6,32,0.00,,---,0.00,VWS V14.01,2014-08-22 04:01:00,
2014-08-22 00:02:00,70.5,39.3,28.88,WSW,246,0.0,0.0,32,0.00,,---,0.00,VWS V14.01,2014-08-22 04:02:00,
2014-08-22 00:03:00,70.3,39.1,28.88,SSW,197,0.0,0.0,32,0.00,,---,0.00,VWS V14.01,2014-08-22 04:03:00,
2014-08-22 00:05:00,70.2,39.7,28.88,SW,236,2.7,4.0,33,0.00,,---,0.00,VWS V14.01,2014-08-22 04:05:00,
2014-08-22 00:06:00,70.0,39.6,28.88,SW,228,2.7,3.6,33,0.00,,---,0.00,VWS V14.01,2014-08-22 04:06:00,
2014-08-22 00:08:00,70.0,40.3,28.88,NW,311,0.0,0.0,34,0.00,,---,0.00,VWS V14.01,2014-08-22 04:08:00,
2014-08-22 00:14:00,69.6,43.6,28.85,WSW,254,0.0,0.0,39,0.00,,---,0.00,VWS V14.01,2014-08-22 04:14:00,
2014-08-22 00:20:00,69.3,44.6,28.85,SW,231,0.0,2.7,41,0.00,,---,0.00,VWS V14.01,2014-08-22 04:20:00,
2014-08-22 00:25:00,69.1,45.0,28.85,WNW,290,0.0,0.0,42,0.00,,---,0.00,VWS V14.01,2014-08-22 04:25:00,
2014-08-22 00:30:00,68.9,45.5,28.85,WSW,258,3.1,3.1,43,0.00,,---,0.00,VWS V14.01,2014-08-22 04:30:00,
2014-08-22 00:35:00,68.7,46.5,28.85,WNW,283,3.6,4.0,45,0.00,,---,0.00,VWS V14.01,2014-08-22 04:35:00,
2014-08-22 00:41:00,68.7,49.9,28.85,WNW,290,3.6,4.0,51,0.00,,---,0.00,VWS V14.01,2014-08-22 04:41:00,
2014-08-22 00:46:00,68.7,52.4,28.85,WNW,285,4.0,4.0,56,0.00,,---,0.00,VWS V14.01,2014-08-22 04:46:00,
2014-08-22 00:52:00,68.5,53.2,28.85,WNW,292,2.7,2.7,58,0.00,,---,0.00,VWS V14.01,2014-08-22 04:52:00,
2014-08-22 00:57:00,68.5,54.1,28.85,SW,219,0.0,0.0,60,0.00,,---,0.00,VWS V14.01,2014-08-22 04:57:00,
2014-08-22 01:02:00,68.5,55.0,28.85,WSW,242,3.1,3.1,62,0.00,,---,0.00,VWS V14.01,2014-08-22 05:02:00,
2014-08-22 01:07:00,68.5,55.5,28.85,WSW,254,0.0,2.7,63,0.00,,---,0.00,VWS V14.01,2014-08-22 05:07:00,
2014-08-22 01:13:00,68.5,55.9,28.85,WNW,284,0.0,0.0,64,0.00,,---,0.00,VWS V14.01,2014-08-22 05:13:00,
2014-08-22 01:18:00,68.5,56.7,28.85,West,277,0.0,0.0,66,0.00,,---,0.00,VWS V14.01,2014-08-22 05:18:00,
2014-08-22 01:24:00,68.5,57.2,28.85,WSW,257,0.0,0.0,67,0.00,,---,0.00,VWS V14.01,2014-08-22 05:24:00,
2014-08-22 01:30:00,68.5,57.6,28.85,WSW,240,0.0,0.0,68,0.00,,---,0.00,VWS V14.01,2014-08-22 05:30:00,
2014-08-22 01:35:00,68.5,57.6,28.85,West,276,0.0,0.0,68,0.00,,---,0.00,VWS V14.01,2014-08-22 05:35:00,
2014-08-22 01:40:00,68.7,58.2,28.85,WNW,290,0.0,0.0,69,0.00,,---,0.00,VWS V14.01,2014-08-22 05:40:00,
2014-08-22 01:45:00,68.5,58.0,28.85,WNW,290,0.0,0.0,69,0.00,,---,0.00,VWS V14.01,2014-08-22 05:45:00,
2014-08-22 01:51:00,68.7,57.7,28.85,WNW,290,0.0,0.0,68,0.00,,---,0.00,VWS V14.01,2014-08-22 05:51:00,
2014-08-22 01:56:00,68.7,57.7,28.85,WNW,290,0.0,0.0,68,0.00,,---,0.00,VWS V14.01,2014-08-22 05:56:00,
2014-08-22 02:02:00,68.5,57.6,28.82,WNW,290,0.0,0.0,68,0.00,,---,0.00,VWS V14.01,2014-08-22 06:02:00,
2014-08-22 02:07:00,68.5,57.6,28.82,WNW,290,0.0,0.0,68,0.00,,---,0.00,VWS V14.01,2014-08-22 06:07:00,
2014-08-22 02:13:00,68.5,57.6,28.82,SW,231,0.0,0.0,68,0.00,,---,0.00,VWS V14.01,2014-08-22 06:13:00,
2014-08-22 02:19:00,68.5,57.6,28.82,WNW,286,0.0,0.0,68,0.00,,---,0.00,VWS V14.01,2014-08-22 06:19:00,
2014-08-22 02:24:00,68.5,57.6,28.82,WNW,286,0.0,0.0,68,0.00,,---,0.00,VWS V14.01,2014-08-22 06:24:00,
2014-08-22 02:29:00,68.5,57.6,28.82,WNW,286,0.0,0.0,68,0.00,,---,0.00,VWS V14.01,2014-08-22 06:29:00,
2014-08-22 02:34:00,68.5,57.6,28.82,WNW,286,0.0,0.0,68,0.00,,---,0.00,VWS V14.01,2014-08-22 06:34:00,
2014-08-22 02:40:00,68.5,58.0,28.82,WNW,286,0.0,0.0,69,0.00,,---,0.00,VWS V14.01,2014-08-22 06:40:00,
2014-08-22 02:46:00,68.5,58.0,28.82,WSW,250,0.0,0.0,69,0.00,,---,0.00,VWS V14.01,2014-08-22 06:46:00,
2014-08-22 02:52:00,68.5,58.0,28.82,West,278,2.7,3.6,69,0.00,,---,0.00,VWS V14.01,2014-08-22 06:52:00,
2014-08-22 02:58:00,68.7,58.5,28.82,WNW,289,0.0,0.0,70,0.00,,---,0.00,VWS V14.01,2014-08-22 06:58:00,